Time;durP1;ratioP1;P1;durP2;ratioP2;P2;SDS_P1;SDS_P2;PMS_P1;PMS_P2;Temp;Humidity;BMP_temperature;BMP_pressure;BME280_temperature;BME280_humidity;BME280_pressure;Samples;Min_cycle;Max_cycle;Signal;HPM_P1;HPM_P2
2023/07/15 00:01:15;;;;;;;;;0.00;0.00;;;;;-146.67;31.79;72964.94;5043790;28;61973;-77
2023/07/15 00:03:40;;;;;;;;;0.00;0.00;;;;;-146.67;31.79;72972.91;5051626;28;64492;-77
2023/07/15 00:06:07;;;;;;;;;0.67;0.00;;;;;-146.67;32.03;72976.91;5064101;28;61871;-76
2023/07/15 00:08:33;;;;;;;;;2.00;0.67;;;;;-146.67;32.58;72982.91;5065009;28;61899;-77
2023/07/15 00:10:58;;;;;;;;;3.67;3.67;;;;;-146.67;32.23;72976.91;5062182;28;61841;-76
2023/07/15 00:13:24;;;;;;;;;3.33;2.33;;;;;-146.67;32.32;72984.91;5042738;28;63705;-76
2023/07/15 00:15:53;;;;;;;;;7.50;6.75;;;;;-146.67;32.58;72986.88;5043779;28;61767;-76
2023/07/15 00:18:19;;;;;;;;;14.50;11.50;;;;;-146.67;32.60;72994.88;5043529;28;62034;-76
2023/07/15 00:20:45;;;;;;;;;16.25;15.25;;;;;-146.67;32.56;72996.88;5061064;28;61795;-76
2023/07/15 00:23:29;;;;;;;;;31.25;27.75;;;;;-146.67;32.75;73002.84;5061216;28;61654;-76
2023/07/15 00:25:54;;;;;;;;;37.25;31.50;;;;;-146.67;33.03;73008.84;5061926;28;62031;-76
2023/07/15 00:28:21;;;;;;;;;24.25;20.75;;;;;-146.67;32.80;73014.81;5061332;28;62118;-76
2023/07/15 00:30:50;;;;;;;;;21.25;19.50;;;;;-146.67;33.23;73020.81;5061615;28;62157;-76
2023/07/15 00:33:16;;;;;;;;;19.25;18.00;;;;;-146.67;33.04;73026.81;5042791;28;63855;-76
2023/07/15 00:35:43;;;;;;;;;15.00;13.25;;;;;-146.67;33.45;73036.78;5061302;28;61963;-76
2023/07/15 00:38:13;;;;;;;;;8.75;5.50;;;;;-146.67;32.88;73012.84;5063760;28;61969;-76
2023/07/15 00:40:44;;;;;;;;;5.00;4.00;;;;;-146.67;33.07;73014.81;5081596;28;61983;-76
2023/07/15 00:43:47;;;;;;;;;7.00;3.00;;;;;-146.67;32.98;73010.84;5081240;28;61737;-76
2023/07/15 00:46:18;;;;;;;;;4.33;1.67;;;;;-146.67;33.49;73012.84;5081719;28;61839;-76
2023/07/15 00:49:19;;;;;;;;;1.00;1.00;;;;;-146.67;33.40;73030.78;5081279;27;62027;-77
2023/07/15 00:51:48;;;;;;;;;1.00;1.00;;;;;-146.67;33.95;73040.78;5081813;28;62152;-76
2023/07/15 00:54:14;;;;;;;;;1.00;1.00;;;;;-146.67;33.89;73046.75;5062981;28;63595;-76
2023/07/15 00:56:42;;;;;;;;;1.00;1.00;;;;;-146.67;34.04;73052.75;5081861;28;61812;-76
2023/07/15 00:59:12;;;;;;;;;1.00;0.00;;;;;-146.67;34.28;73056.75;5081602;28;61723;-76
2023/07/15 01:01:38;;;;;;;;;0.00;0.00;;;;;-146.67;34.06;73062.72;5063678;28;61889;-76
2023/07/15 01:04:03;;;;;;;;;0.00;0.00;;;;;-146.67;34.29;73064.72;5077762;28;64973;-77
2023/07/15 01:06:33;;;;;;;;;1.00;1.00;;;;;-146.67;34.40;73070.72;5081431;28;61862;-76
2023/07/15 01:08:59;;;;;;;;;1.00;1.00;;;;;-146.67;34.36;73062.72;5080453;28;61977;-76
2023/07/15 01:11:25;;;;;;;;;0.00;0.00;;;;;-146.67;34.45;73068.72;5061714;28;62083;-76
2023/07/15 01:13:50;;;;;;;;;0.00;0.00;;;;;-146.67;34.60;73086.69;5081464;28;61854;-76
2023/07/15 01:16:16;;;;;;;;;0.00;0.00;;;;;-146.67;34.99;73088.66;5084224;28;61967;-76
2023/07/15 01:18:42;;;;;;;;;0.00;0.00;;;;;-146.67;34.72;73086.69;5065788;28;62234;-77
2023/07/15 01:21:10;;;;;;;;;1.00;1.00;;;;;-146.67;34.63;73084.69;5084306;28;62042;-76
2023/07/15 01:23:35;;;;;;;;;0.00;0.00;;;;;-146.67;34.50;73078.69;5065856;28;64807;-77
2023/07/15 01:26:01;;;;;;;;;2.00;0.67;;;;;-146.67;34.86;73090.66;5084758;28;62106;-76
2023/07/15 01:28:26;;;;;;;;;0.67;0.00;;;;;-146.67;34.90;73098.66;5075228;27;61898;-76
2023/07/15 01:30:52;;;;;;;;;0.00;0.00;;;;;-146.67;34.58;73096.66;5086958;27;61919;-76
2023/07/15 01:33:18;;;;;;;;;0.00;0.00;;;;;-146.67;34.70;73104.63;5104524;27;61684;-76
2023/07/15 01:35:47;;;;;;;;;1.33;0.67;;;;;-146.67;35.07;73106.63;5104063;27;61894;-77
2023/07/15 01:38:13;;;;;;;;;0.00;0.00;;;;;-146.67;35.66;73116.59;5084107;28;61965;-76
2023/07/15 01:40:39;;;;;;;;;0.67;0.67;;;;;-146.67;35.83;73126.59;5066179;28;61947;-77
2023/07/15 01:43:04;;;;;;;;;0.33;0.00;;;;;-146.67;36.04;73124.59;5082301;28;61887;-76
2023/07/15 01:45:30;;;;;;;;;0.67;0.67;;;;;-146.67;36.14;73124.59;5046076;28;61909;-77
2023/07/15 01:47:56;;;;;;;;;0.00;0.00;;;;;-146.67;36.05;73126.59;5064131;28;62617;-76
2023/07/15 01:50:22;;;;;;;;;0.00;0.00;;;;;-146.67;36.39;73128.59;5063153;28;62137;-76
2023/07/15 01:52:47;;;;;;;;;0.00;0.00;;;;;-146.67;36.02;73126.59;5045429;28;63793;-76
2023/07/15 01:55:12;;;;;;;;;0.67;0.00;;;;;-146.67;36.18;73122.59;5063883;28;62001;-76
2023/07/15 01:57:38;;;;;;;;;0.33;0.33;;;;;-146.67;36.28;73126.59;5064218;28;61855;-76
2023/07/15 02:00:05;;;;;;;;;1.33;0.00;;;;;-146.67;36.37;73132.56;5045637;28;61968;-76
2023/07/15 02:02:30;;;;;;;;;0.67;0.67;;;;;-146.67;36.60;73120.59;5063187;28;62113;-77
2023/07/15 02:04:56;;;;;;;;;0.33;0.33;;;;;-146.67;36.40;73122.59;5063515;28;62002;-76
2023/07/15 02:07:22;;;;;;;;;0.00;0.00;;;;;-146.67;36.73;73138.56;5063810;28;61839;-76
2023/07/15 02:09:48;;;;;;;;;0.67;0.67;;;;;-146.67;37.19;73138.56;5046004;28;62172;-76
2023/07/15 02:12:14;;;;;;;;;1.00;0.00;;;;;-146.67;37.18;73140.56;5044761;28;63526;-76
2023/07/15 02:14:39;;;;;;;;;0.67;0.67;;;;;-146.67;37.11;73142.56;5045615;28;61835;-76
2023/07/15 02:17:05;;;;;;;;;0.00;0.00;;;;;-146.67;37.30;73144.56;5063401;28;61803;-77
2023/07/15 02:19:31;;;;;;;;;1.67;0.00;;;;;-146.67;37.36;73148.53;5062721;28;62026;-76
2023/07/15 02:21:57;;;;;;;;;0.00;0.00;;;;;-146.67;37.57;73152.53;5044851;28;63654;-76
2023/07/15 02:24:22;;;;;;;;;0.00;0.00;;;;;-146.67;37.43;73154.53;5062962;28;61824;-76
2023/07/15 02:26:48;;;;;;;;;0.00;0.00;;;;;-146.67;38.00;73160.50;5045554;28;62119;-76
2023/07/15 02:29:13;;;;;;;;;0.00;0.00;;;;;-146.67;37.90;73156.53;5045448;28;61946;-76
2023/07/15 02:31:39;;;;;;;;;0.00;0.00;;;;;-146.67;37.83;73154.53;5044601;28;63738;-76
2023/07/15 02:34:05;;;;;;;;;0.00;0.00;;;;;-146.67;37.96;73158.53;5044822;28;61855;-76
2023/07/15 02:36:30;;;;;;;;;0.00;0.00;;;;;-146.67;38.02;73154.53;5055295;28;61842;-76
2023/07/15 02:39:00;;;;;;;;;0.00;0.00;;;;;-146.67;37.71;73152.53;5083794;28;61774;-76
2023/07/15 02:41:25;;;;;;;;;0.00;0.00;;;;;-146.67;38.15;73166.50;5081448;28;63518;-76
2023/07/15 02:43:51;;;;;;;;;0.00;0.00;;;;;-146.67;37.89;73162.50;5082235;28;61971;-76
2023/07/15 02:46:17;;;;;;;;;1.00;0.67;;;;;-146.67;38.08;73170.50;5081736;28;62218;-76
2023/07/15 02:48:42;;;;;;;;;2.00;1.00;;;;;-146.67;38.36;73180.47;5083373;27;62007;-77
2023/07/15 02:51:07;;;;;;;;;0.33;0.33;;;;;-146.67;38.21;73176.47;5082779;27;61920;-76
2023/07/15 02:53:33;;;;;;;;;1.33;0.67;;;;;-146.67;38.08;73176.47;5083412;27;61801;-76
2023/07/15 02:55:58;;;;;;;;;0.00;0.00;;;;;-146.67;38.45;73186.47;5082093;28;62033;-77
2023/07/15 02:58:24;;;;;;;;;2.00;1.00;;;;;-146.67;38.62;73192.44;5083300;28;62174;-77
2023/07/15 03:00:52;;;;;;;;;0.67;0.00;;;;;-146.67;38.89;73190.44;5082348;28;61904;-76
2023/07/15 03:03:18;;;;;;;;;2.00;0.00;;;;;-146.67;38.62;73188.47;5082963;27;61985;-76
2023/07/15 03:05:50;;;;;;;;;0.67;0.00;;;;;-146.67;38.44;73190.44;5082874;27;61875;-76
2023/07/15 03:08:16;;;;;;;;;0.33;0.33;;;;;-146.67;38.71;73192.44;5082142;28;61807;-77
2023/07/15 03:10:44;;;;;;;;;0.00;0.00;;;;;-146.67;38.48;73200.44;5082539;27;61897;-76
2023/07/15 03:13:10;;;;;;;;;0.33;0.33;;;;;-146.67;38.75;73214.41;5082199;28;61995;-77
2023/07/15 03:15:36;;;;;;;;;0.00;0.00;;;;;-146.67;39.03;73220.38;5081275;28;61965;-76
2023/07/15 03:18:02;;;;;;;;;1.00;0.00;;;;;-146.67;38.97;73230.38;5081972;28;61873;-77
2023/07/15 03:20:28;;;;;;;;;1.67;0.33;;;;;-146.67;39.33;73234.38;5079901;28;63713;-76
2023/07/15 03:22:54;;;;;;;;;0.00;0.00;;;;;-146.67;39.24;73232.38;5083122;27;61783;-76
2023/07/15 03:25:20;;;;;;;;;0.67;0.67;;;;;-146.67;39.64;73242.34;5081694;28;61808;-76
2023/07/15 03:27:47;;;;;;;;;0.00;0.00;;;;;-146.67;39.43;73236.34;5083240;27;62001;-76
2023/07/15 03:30:12;;;;;;;;;0.33;0.00;;;;;-146.67;39.65;73242.34;5080468;28;63700;-76
2023/07/15 03:32:39;;;;;;;;;0.00;0.00;;;;;-146.67;40.03;73254.31;5081126;28;61925;-76
2023/07/15 03:35:08;;;;;;;;;2.00;1.00;;;;;-146.67;40.10;73250.31;5081196;28;61779;-76
2023/07/15 03:37:34;;;;;;;;;0.67;0.67;;;;;-146.67;39.86;73256.31;5066169;28;61821;-76
2023/07/15 03:40:00;;;;;;;;;2.00;1.00;;;;;-146.67;40.08;73268.28;5061708;28;61832;-76
2023/07/15 03:42:26;;;;;;;;;1.00;0.67;;;;;-146.67;40.19;73270.28;5062321;28;62030;-76
2023/07/15 03:44:53;;;;;;;;;0.33;0.33;;;;;-146.67;39.92;73278.28;5062086;28;61729;-76
2023/07/15 03:47:19;;;;;;;;;0.33;0.33;;;;;-146.67;40.50;73286.25;5062665;28;61768;-76
2023/07/15 03:49:44;;;;;;;;;0.00;0.00;;;;;-146.67;40.06;73278.28;5042416;28;63821;-76
2023/07/15 03:52:10;;;;;;;;;1.00;0.00;;;;;-146.67;40.00;73294.22;5044008;28;61878;-76
2023/07/15 03:54:35;;;;;;;;;2.00;0.00;;;;;-146.67;40.08;73290.25;5062156;28;61891;-76
2023/07/15 03:57:01;;;;;;;;;1.00;1.00;;;;;-146.67;40.28;73294.22;5044492;28;61787;-76
2023/07/15 03:59:27;;;;;;;;;0.00;0.00;;;;;-146.67;40.52;73294.22;5060787;28;62762;-76
2023/07/15 04:01:52;;;;;;;;;0.33;0.00;;;;;-146.67;40.68;73274.28;5063155;28;61768;-76
2023/07/15 04:04:17;;;;;;;;;0.75;0.75;;;;;-146.67;40.39;73270.28;5067132;28;61948;-76
2023/07/15 04:06:43;;;;;;;;;2.00;0.00;;;;;-146.67;40.02;73260.31;5062156;28;61728;-76
2023/07/15 04:09:11;;;;;;;;;0.00;0.00;;;;;-146.67;40.23;73260.31;5061707;28;62085;-76
2023/07/15 04:11:38;;;;;;;;;0.00;0.00;;;;;-146.67;40.07;73254.31;5061805;28;62109;-76
2023/07/15 04:14:03;;;;;;;;;1.00;1.00;;;;;-146.67;39.90;73260.31;5061842;28;61752;-76
2023/07/15 04:16:29;;;;;;;;;1.00;0.00;;;;;-146.67;40.37;73278.28;5062248;28;61848;-76
2023/07/15 04:18:54;;;;;;;;;2.00;0.33;;;;;-146.67;40.69;73296.22;5060467;28;62489;-76
2023/07/15 04:21:20;;;;;;;;;1.00;1.00;;;;;-146.67;40.52;73310.19;5043671;28;62484;-76
2023/07/15 04:23:46;;;;;;;;;1.00;1.00;;;;;-146.67;40.42;73304.22;5062081;28;61955;-76
2023/07/15 04:26:12;;;;;;;;;2.33;1.00;;;;;-146.67;40.50;73296.22;5043815;28;62189;-75
2023/07/15 04:28:37;;;;;;;;;0.00;0.00;;;;;-146.67;40.54;73288.25;5060837;28;61776;-76
2023/07/15 04:31:03;;;;;;;;;0.00;0.00;;;;;-146.67;40.56;73288.25;5043655;28;61855;-76
2023/07/15 04:33:28;;;;;;;;;1.00;0.00;;;;;-146.67;40.14;73274.28;5061724;28;61848;-76
2023/07/15 04:35:54;;;;;;;;;0.33;0.33;;;;;-146.67;40.30;73288.25;5061300;28;61733;-76
2023/07/15 04:38:21;;;;;;;;;3.00;1.00;;;;;-146.67;40.48;73270.28;5043110;28;63822;-76
2023/07/15 04:40:47;;;;;;;;;0.67;0.00;;;;;-146.67;40.39;73270.28;5061392;28;62157;-76
2023/07/15 04:43:12;;;;;;;;;0.00;0.00;;;;;-146.67;40.56;73262.31;5043391;28;62151;-76
2023/07/15 04:45:37;;;;;;;;;0.25;0.25;;;;;-146.67;40.81;73276.28;5043580;28;61973;-76
2023/07/15 04:48:03;;;;;;;;;0.00;0.00;;;;;-146.67;40.22;73278.28;5062288;28;62170;-76
2023/07/15 04:50:29;;;;;;;;;0.33;0.33;;;;;-146.67;40.64;73272.28;5064267;28;61933;-76
2023/07/15 04:52:54;;;;;;;;;1.67;0.67;;;;;-146.67;40.80;73278.28;5064967;28;61866;-76
2023/07/15 04:55:20;;;;;;;;;1.67;0.67;;;;;-146.67;40.80;73288.25;5047154;28;62015;-76
2023/07/15 04:57:46;;;;;;;;;0.00;0.00;;;;;-146.67;40.58;73288.25;5063942;28;62674;-76
2023/07/15 05:00:11;;;;;;;;;0.00;0.00;;;;;-146.67;40.44;73282.25;5046538;28;61977;-76
2023/07/15 05:02:40;;;;;;;;;0.33;0.33;;;;;-146.67;40.28;73280.25;5072148;28;61736;-76
2023/07/15 05:05:06;;;;;;;;;0.00;0.00;;;;;-146.67;40.73;73282.25;5066900;28;62001;-76
2023/07/15 05:07:34;;;;;;;;;0.33;0.33;;;;;-146.67;40.69;73280.25;5084485;28;61786;-76
2023/07/15 05:09:59;;;;;;;;;1.67;0.67;;;;;-146.67;40.81;73286.25;5084790;28;61741;-76
2023/07/15 05:12:26;;;;;;;;;0.00;0.00;;;;;-146.67;40.68;73288.25;5066645;28;61877;-76
2023/07/15 05:14:51;;;;;;;;;0.00;0.00;;;;;-146.67;40.76;73290.25;5084636;28;61755;-76
2023/07/15 05:17:17;;;;;;;;;3.00;1.00;;;;;-146.67;40.20;73284.25;5084602;28;62940;-76
2023/07/15 05:19:42;;;;;;;;;0.00;0.00;;;;;-146.67;40.18;73286.25;5083265;28;61896;-76
2023/07/15 05:22:07;;;;;;;;;0.00;0.00;;;;;-146.67;40.78;73308.22;5084979;28;61912;-76
2023/07/15 05:24:33;;;;;;;;;0.00;0.00;;;;;-146.67;40.40;73282.25;5085154;28;61790;-76
2023/07/15 05:26:58;;;;;;;;;0.00;0.00;;;;;-146.67;40.36;73280.25;5083864;28;63182;-76
2023/07/15 05:29:24;;;;;;;;;0.33;0.33;;;;;-146.67;40.69;73286.25;5084841;28;61816;-76
2023/07/15 05:31:50;;;;;;;;;1.75;1.75;;;;;-146.67;40.73;73312.19;5066519;28;61784;-76
2023/07/15 05:34:15;;;;;;;;;0.75;0.75;;;;;-146.67;40.62;73314.19;5084517;28;61970;-76
2023/07/15 05:36:41;;;;;;;;;0.00;0.00;;;;;-146.67;40.00;73322.19;5078630;27;64217;-76
2023/07/15 05:39:06;;;;;;;;;1.00;1.00;;;;;-146.67;40.03;73332.16;5103569;27;61825;-76
2023/07/15 05:41:32;;;;;;;;;1.00;1.00;;;;;-146.67;39.61;73346.13;5104931;27;61763;-76
2023/07/15 05:43:57;;;;;;;;;1.00;0.00;;;;;-146.67;39.00;73324.16;5105013;27;62162;-76
2023/07/15 05:46:22;;;;;;;;;1.00;1.00;;;;;-146.67;38.86;73324.16;5103298;27;63919;-76
2023/07/15 05:48:48;;;;;;;;;2.00;1.00;;;;;-146.67;39.01;73330.16;5104710;27;61743;-76
2023/07/15 05:51:13;;;;;;;;;0.75;0.75;;;;;-146.67;39.13;73360.09;5104164;27;61880;-76
2023/07/15 05:53:41;;;;;;;;;1.00;1.00;;;;;-146.67;38.71;73346.13;5105149;27;62385;-77
2023/07/15 05:56:07;;;;;;;;;0.67;0.67;;;;;-146.67;38.30;73348.13;5102310;27;63654;-76
2023/07/15 05:58:32;;;;;;;;;1.67;0.00;;;;;-146.67;38.32;73344.13;5103564;27;61946;-76
2023/07/15 06:00:58;;;;;;;;;2.00;1.25;;;;;-146.67;38.43;73348.13;5102517;27;62440;-76
2023/07/15 06:03:25;;;;;;;;;1.00;1.00;;;;;-146.67;38.28;73346.13;5100773;27;61875;-77
2023/07/15 06:05:51;;;;;;;;;0.67;0.67;;;;;-146.67;37.92;73358.09;5102663;27;64431;-77
2023/07/15 06:08:16;;;;;;;;;1.00;0.67;;;;;-146.67;37.87;73358.09;5104354;27;61745;-77
2023/07/15 06:10:42;;;;;;;;;1.00;1.00;;;;;-146.67;38.11;73346.13;5102118;27;61988;-76
2023/07/15 06:13:08;;;;;;;;;2.00;0.33;;;;;-146.67;37.84;73350.13;5094171;27;61945;-76
2023/07/15 06:15:35;;;;;;;;;0.33;0.33;;;;;-146.67;37.70;73352.13;5099274;27;63832;-77
2023/07/15 06:18:01;;;;;;;;;0.33;0.33;;;;;-146.67;37.53;73362.09;5103098;27;61782;-77
2023/07/15 06:20:27;;;;;;;;;2.33;1.67;;;;;-146.67;37.55;73372.06;5100249;27;61729;-75
2023/07/15 06:22:52;;;;;;;;;1.00;1.00;;;;;-146.67;37.71;73380.06;5094000;27;61811;-75
2023/07/15 06:25:18;;;;;;;;;0.67;0.67;;;;;-146.67;37.37;73354.13;5094339;27;63740;-79
2023/07/15 06:27:43;;;;;;;;;0.67;0.67;;;;;-146.67;37.49;73360.09;5089342;27;61891;-80
2023/07/15 06:30:09;;;;;;;;;2.33;0.33;;;;;-146.67;37.40;73364.09;5090963;27;61952;-79
2023/07/15 06:32:35;;;;;;;;;0.00;0.00;;;;;-146.67;37.21;73370.06;5090285;27;61725;-80
2023/07/15 06:35:00;;;;;;;;;0.33;0.33;;;;;-146.67;37.47;73354.13;5090844;27;62125;-78
2023/07/15 06:37:26;;;;;;;;;1.67;0.67;;;;;-146.67;37.16;73356.09;5101950;27;61733;-78
2023/07/15 06:39:51;;;;;;;;;0.67;0.67;;;;;-146.67;37.43;73348.13;5083200;27;61671;-81
2023/07/15 06:42:18;;;;;;;;;2.25;2.00;;;;;-146.67;37.19;73336.16;5083206;27;61718;-78
2023/07/15 06:44:43;;;;;;;;;3.50;2.00;;;;;-146.67;37.26;73340.13;5095478;27;63585;-78
2023/07/15 06:47:09;;;;;;;;;0.00;0.00;;;;;-146.67;37.02;73322.19;5102504;27;61912;-82
2023/07/15 06:49:34;;;;;;;;;2.33;0.67;;;;;-146.67;36.71;73314.19;5094330;27;62044;-78
2023/07/15 06:52:00;;;;;;;;;2.00;0.00;;;;;-146.67;36.49;73320.19;5092678;27;61861;-78
2023/07/15 06:54:25;;;;;;;;;2.00;1.00;;;;;-146.67;36.50;73320.19;5091101;27;62023;-78
2023/07/15 06:56:50;;;;;;;;;0.33;0.33;;;;;-146.67;36.37;73330.16;5093405;27;61920;-78
2023/07/15 06:59:16;;;;;;;;;0.00;0.00;;;;;-146.67;37.50;73350.13;5101717;27;61877;-81
2023/07/15 07:01:41;;;;;;;;;3.75;1.50;;;;;-146.67;48.59;73443.94;5092644;27;62012;-80
2023/07/15 07:04:07;;;;;;;;;1.67;1.00;;;;;-146.67;47.55;73493.81;5090507;27;62781;-80
2023/07/15 07:06:32;;;;;;;;;1.00;1.00;;;;;-146.67;47.41;73547.72;5090733;27;61926;-77
2023/07/15 07:08:57;;;;;;;;;1.00;1.00;;;;;-146.67;46.34;73545.72;5090438;27;62478;-77
2023/07/15 07:11:23;;;;;;;;;1.25;0.50;;;;;-146.67;44.54;73571.66;5082864;27;61916;-77
2023/07/15 07:13:48;;;;;;;;;0.25;0.25;;;;;-146.67;43.48;73547.72;5081079;28;64679;-78
2023/07/15 07:16:14;;;;;;;;;2.50;0.75;;;;;-146.67;42.91;73533.75;5095910;27;61876;-77
2023/07/15 07:18:39;;;;;;;;;1.00;1.00;;;;;-146.67;42.06;73515.78;5082833;27;62224;-75
2023/07/15 07:21:05;;;;;;;;;1.50;0.50;;;;;-146.67;41.72;73473.88;5093212;27;62113;-75
2023/07/15 07:23:30;;;;;;;;;0.67;0.67;;;;;-146.67;40.22;73437.94;5102161;27;61969;-75
2023/07/15 07:25:56;;;;;;;;;2.00;2.00;;;;;-146.67;42.01;73421.97;5098273;27;61884;-75
2023/07/15 07:28:25;;;;;;;;;2.00;1.00;;;;;-146.67;40.80;73398.03;5082930;28;62383;-75
2023/07/15 07:30:51;;;;;;;;;1.00;1.00;;;;;-146.67;39.70;73394.03;5082626;27;61750;-75
2023/07/15 07:33:16;;;;;;;;;0.00;0.00;;;;;-146.67;39.43;73402.00;5082123;27;61993;-75
2023/07/15 07:35:46;;;;;;;;;0.75;0.75;;;;;-146.67;40.42;73398.03;5082010;27;61798;-75
2023/07/15 07:38:12;;;;;;;;;0.75;0.75;;;;;-146.67;39.68;73394.03;5099000;27;61714;-74
2023/07/15 07:40:39;;;;;;;;;1.25;0.25;;;;;-146.67;38.88;73390.03;5101525;27;61965;-72
2023/07/15 07:43:05;;;;;;;;;1.00;1.00;;;;;-146.67;39.41;73388.03;5099816;27;61821;-75
2023/07/15 07:45:30;;;;;;;;;2.00;0.75;;;;;-146.67;38.59;73382.06;5099702;27;61850;-77
2023/07/15 07:47:55;;;;;;;;;2.00;0.00;;;;;-146.67;38.77;73370.06;5099160;27;62017;-77
2023/07/15 07:50:21;;;;;;;;;0.00;0.00;;;;;-146.67;38.66;73356.09;5101769;27;62025;-77
2023/07/15 07:52:47;;;;;;;;;2.00;1.00;;;;;-146.67;37.98;73340.13;5100943;27;61896;-76
2023/07/15 07:55:12;;;;;;;;;0.67;0.00;;;;;-146.67;38.14;73324.16;5100714;27;62021;-76
2023/07/15 07:57:38;;;;;;;;;0.25;0.25;;;;;-146.67;37.86;73304.22;5102391;27;62355;-76
2023/07/15 08:00:04;;;;;;;;;0.00;0.00;;;;;-146.67;37.83;73280.25;5101211;27;61819;-76
2023/07/15 08:02:30;;;;;;;;;0.00;0.00;;;;;-146.67;37.72;73258.31;5098456;27;63724;-76
2023/07/15 08:04:55;;;;;;;;;2.00;1.00;;;;;-146.67;36.82;73252.31;5095784;27;61746;-75
2023/07/15 08:07:20;;;;;;;;;0.00;0.00;;;;;-146.67;36.86;73250.31;5092172;27;62660;-76
2023/07/15 08:09:46;;;;;;;;;2.00;0.00;;;;;-146.67;36.54;73250.31;5101679;27;62105;-75
2023/07/15 08:12:11;;;;;;;;;0.00;0.00;;;;;-146.67;36.42;73244.34;5089477;27;62019;-75
2023/07/15 08:14:36;;;;;;;;;1.00;1.00;;;;;-146.67;36.30;73238.34;5080656;28;61786;-78
2023/07/15 08:17:02;;;;;;;;;1.00;1.00;;;;;-146.67;36.25;73232.38;5082103;27;61714;-78
2023/07/15 08:19:27;;;;;;;;;0.00;0.00;;;;;-146.67;36.20;73224.38;5079914;28;61755;-78
2023/07/15 08:21:53;;;;;;;;;2.00;1.00;;;;;-146.67;36.06;73208.41;5079492;27;63457;-78
2023/07/15 08:24:18;;;;;;;;;0.67;0.00;;;;;-146.67;35.50;73190.44;5094864;27;61914;-79
2023/07/15 08:26:43;;;;;;;;;0.00;0.00;;;;;-146.67;35.27;73200.44;5084153;28;62072;-76
2023/07/15 08:29:09;;;;;;;;;0.67;0.67;;;;;-146.67;35.42;73196.44;5085907;28;62002;-76
2023/07/15 08:31:34;;;;;;;;;1.00;1.00;;;;;-146.67;35.61;73210.41;5083142;28;63548;-75
2023/07/15 08:34:00;;;;;;;;;0.67;0.67;;;;;-146.67;34.90;73216.41;5098235;27;62001;-75
2023/07/15 08:36:25;;;;;;;;;0.00;0.00;;;;;-146.67;35.01;73222.38;5085173;27;61790;-75
2023/07/15 08:38:50;;;;;;;;;0.00;0.00;;;;;-146.67;35.13;73234.38;5088244;27;61880;-76
2023/07/15 08:41:17;;;;;;;;;2.00;0.00;;;;;-146.67;35.27;73232.38;5083192;28;63601;-75
2023/07/15 08:43:45;;;;;;;;;1.00;1.00;;;;;-146.67;35.43;73238.34;5083788;28;61881;-76
2023/07/15 08:46:27;;;;;;;;;0.67;0.67;;;;;-146.67;35.49;73228.38;5085053;27;61865;-78
2023/07/15 08:48:54;;;;;;;;;3.00;1.00;;;;;-146.67;35.26;73230.38;5093534;27;61772;-76
2023/07/15 08:51:24;;;;;;;;;0.00;0.00;;;;;-146.67;35.22;73224.38;5104805;27;62825;-74
2023/07/15 08:53:49;;;;;;;;;0.67;0.67;;;;;-146.67;35.21;73222.38;5103839;27;61762;-74
2023/07/15 08:56:15;;;;;;;;;2.00;1.00;;;;;-146.67;35.03;73210.41;5105685;27;62095;-75
2023/07/15 08:58:42;;;;;;;;;1.00;0.00;;;;;-146.67;35.18;73208.41;5086733;27;61926;-75
2023/07/15 09:01:07;;;;;;;;;3.33;1.00;;;;;-146.67;35.03;73202.44;5093508;27;64087;-75
2023/07/15 09:03:33;;;;;;;;;0.00;0.00;;;;;-146.67;35.32;73206.41;5090436;27;62037;-76
2023/07/15 09:06:00;;;;;;;;;3.00;1.33;;;;;-146.67;35.05;73222.38;5098874;27;61935;-80
2023/07/15 09:08:25;;;;;;;;;0.67;0.67;;;;;-146.67;35.16;73212.41;5104381;27;62185;-83
2023/07/15 09:10:55;;;;;;;;;1.67;1.33;;;;;-146.67;35.07;73218.41;5102930;27;63453;-79
2023/07/15 09:13:26;;;;;;;;;2.33;1.00;;;;;-146.67;35.24;73216.41;5101232;27;61935;-74
2023/07/15 09:15:53;;;;;;;;;1.00;0.00;;;;;-146.67;35.24;73210.41;5105145;27;61923;-83
2023/07/15 09:18:19;;;;;;;;;1.00;1.00;;;;;-146.67;34.91;73208.41;5100655;27;62069;-79
2023/07/15 09:20:45;;;;;;;;;0.67;0.67;;;;;-146.67;34.90;73210.41;5082326;27;62677;-80
2023/07/15 09:23:11;;;;;;;;;0.00;0.00;;;;;-146.67;35.18;73218.41;5082355;28;61861;-85
2023/07/15 09:25:37;;;;;;;;;1.00;1.00;;;;;-146.67;35.21;73214.41;5098734;27;61909;-85
2023/07/15 09:28:02;;;;;;;;;1.00;1.00;;;;;-146.67;34.69;73188.47;5104653;27;61895;-84
2023/07/15 09:30:28;;;;;;;;;1.00;1.00;;;;;-146.67;34.58;73160.50;5086850;27;62192;-84
2023/07/15 09:32:54;;;;;;;;;2.67;1.00;;;;;-146.67;34.55;73160.50;5084072;27;61972;-80
2023/07/15 09:35:20;;;;;;;;;0.33;0.33;;;;;-146.67;34.33;73168.50;5080759;28;61996;-83
2023/07/15 09:37:49;;;;;;;;;0.00;0.00;;;;;-146.67;34.25;73176.47;5084285;27;62083;-81
2023/07/15 09:40:14;;;;;;;;;1.33;1.00;;;;;-146.67;34.45;73178.47;5070533;28;61851;-87
2023/07/15 09:42:56;;;;;;;;;1.00;1.00;;;;;-146.67;34.41;73188.47;5066201;28;61792;-85
2023/07/15 09:45:41;;;;;;;;;3.67;0.67;;;;;-146.67;34.33;73178.47;5071235;28;62041;-80
2023/07/15 09:48:12;;;;;;;;;1.00;1.00;;;;;-146.67;34.40;73160.50;5067963;28;62221;-79
2023/07/15 09:50:40;;;;;;;;;1.00;1.00;;;;;-146.67;34.36;73162.50;5046369;28;64794;-88
2023/07/15 09:53:06;;;;;;;;;0.00;0.00;;;;;-146.67;34.09;73154.53;5062573;28;62029;-89
2023/07/15 09:55:33;;;;;;;;;3.67;0.67;;;;;-146.67;33.94;73122.59;5075430;28;62011;-84
2023/07/15 09:58:23;;;;;;;;;1.33;1.00;;;;;-146.67;33.56;73104.63;5084147;28;61742;-86
2023/07/15 10:00:52;;;;;;;;;3.00;1.00;;;;;-146.67;33.19;73054.75;5060913;28;65135;-84
2023/07/15 10:03:29;;;;;;;;;4.00;1.00;;;;;-146.67;32.66;73014.81;5063254;28;61850;-88
2023/07/15 10:05:55;;;;;;;;;1.00;1.00;;;;;-146.67;32.19;73000.84;5083721;28;61864;-85
2023/07/15 10:08:20;;;;;;;;;1.00;1.00;;;;;-146.67;32.36;72970.91;5083331;28;61852;-84
2023/07/15 10:10:47;;;;;;;;;1.33;1.33;;;;;-146.67;31.97;72948.97;5057636;28;64586;-85
2023/07/15 10:13:13;;;;;;;;;1.67;1.00;;;;;-146.67;31.65;72931.00;5065627;28;62029;-86
2023/07/15 10:15:39;;;;;;;;;1.00;1.00;;;;;-146.67;31.28;72897.09;5061354;28;62012;-88
2023/07/15 10:18:12;;;;;;;;;2.00;0.67;;;;;-146.67;31.08;72865.16;5083662;28;61744;-86
2023/07/15 10:20:41;;;;;;;;;1.00;1.00;;;;;-146.67;30.58;72827.22;5069437;28;61949;-90
2023/07/15 10:23:09;;;;;;;;;0.67;0.33;;;;;-146.67;30.54;72825.25;5066164;28;61842;-83
2023/07/15 10:25:34;;;;;;;;;2.67;1.67;;;;;-146.67;30.63;72823.25;5050236;28;61977;-84
2023/07/15 10:28:20;;;;;;;;;1.67;0.67;;;;;-146.67;30.50;72827.22;5045272;28;61932;-89
2023/07/15 10:31:09;;;;;;;;;0.00;0.00;;;;;-146.67;30.36;72827.22;5063451;28;62212;-86
2023/07/15 10:33:38;;;;;;;;;2.00;0.00;;;;;-146.67;30.64;72817.25;5044586;28;61776;-87
2023/07/15 10:36:40;;;;;;;;;1.00;0.00;;;;;-146.67;30.37;72821.25;5055026;27;61941;-89
2023/07/15 10:39:16;;;;;;;;;2.00;0.67;;;;;-146.67;30.27;72841.22;5065734;28;62106;-89
2023/07/15 10:41:42;;;;;;;;;1.00;0.00;;;;;-146.67;30.26;72853.19;5063870;28;63530;-87
2023/07/15 10:44:22;;;;;;;;;0.00;0.00;;;;;-146.67;30.54;72845.19;5065889;28;61923;-90
2023/07/15 10:47:01;;;;;;;;;2.33;1.00;;;;;-146.67;30.47;72821.25;5064476;28;61906;-90
2023/07/15 10:49:27;;;;;;;;;0.67;0.67;;;;;-146.67;29.93;72791.31;5055911;28;61946;-89
2023/07/15 10:51:54;;;;;;;;;1.00;1.00;;;;;-146.67;30.24;72791.31;5064166;28;65230;-77
2023/07/15 10:54:22;;;;;;;;;2.67;1.00;;;;;-146.67;29.98;72779.34;5083232;28;61877;-77
2023/07/15 10:56:48;;;;;;;;;1.33;1.33;;;;;-146.67;29.91;72767.38;5081989;28;62041;-77
2023/07/15 10:59:14;;;;;;;;;2.00;1.00;;;;;-146.67;29.88;72755.41;5075001;28;61770;-77
2023/07/15 11:01:39;;;;;;;;;1.00;1.00;;;;;-146.67;29.47;72807.28;5044443;28;63886;-78
2023/07/15 11:04:05;;;;;;;;;3.00;1.33;;;;;-146.67;29.99;72797.31;5062502;28;61911;-77
2023/07/15 11:06:33;;;;;;;;;1.33;0.33;;;;;-146.67;29.93;72779.34;5072771;28;62051;-77
2023/07/15 11:08:58;;;;;;;;;1.67;1.00;;;;;-146.67;29.46;72785.31;5064737;28;61858;-77
2023/07/15 11:11:24;;;;;;;;;4.00;1.00;;;;;-146.67;29.57;72749.41;5070916;28;62375;-78
2023/07/15 11:13:49;;;;;;;;;0.00;0.00;;;;;-146.67;28.96;72721.47;5043899;28;62045;-78
2023/07/15 11:16:15;;;;;;;;;2.00;0.67;;;;;-146.67;28.83;72683.56;5060828;28;61872;-77